sensor_id;sensor_type;location;lat;lon;timestamp;pressure;altitude;pressure_sealevel;temperature;humidity
71996;BME280;59862;47.732;7.346;2022-10-16T00:01:24;97939.59;;;14.94;83.26
71996;BME280;59862;47.732;7.346;2022-10-16T00:03:53;97936.47;;;14.90;83.12
71996;BME280;59862;47.732;7.346;2022-10-16T00:06:21;97935.12;;;14.90;83.22
71996;BME280;59862;47.732;7.346;2022-10-16T00:08:50;97942.93;;;14.89;83.36
71996;BME280;59862;47.732;7.346;2022-10-16T00:11:20;97943.67;;;14.87;83.23
71996;BME280;59862;47.732;7.346;2022-10-16T00:13:50;97951.67;;;14.85;83.23
71996;BME280;59862;47.732;7.346;2022-10-16T00:16:19;97948.97;;;14.85;83.40
71996;BME280;59862;47.732;7.346;2022-10-16T00:18:47;97962.48;;;14.78;83.60
71996;BME280;59862;47.732;7.346;2022-10-16T00:21:18;97957.38;;;14.79;83.76
71996;BME280;59862;47.732;7.346;2022-10-16T00:23:45;97960.30;;;14.78;83.65
71996;BME280;59862;47.732;7.346;2022-10-16T00:26:15;97966.76;;;14.77;83.78
71996;BME280;59862;47.732;7.346;2022-10-16T00:28:45;97963.84;;;14.78;83.64
71996;BME280;59862;47.732;7.346;2022-10-16T00:31:13;97957.30;;;14.77;83.51
71996;BME280;59862;47.732;7.346;2022-10-16T00:33:41;97955.41;;;14.77;83.50
71996;BME280;59862;47.732;7.346;2022-10-16T00:36:12;97963.84;;;14.78;83.64
71996;BME280;59862;47.732;7.346;2022-10-16T00:38:40;97965.92;;;14.76;83.44
71996;BME280;59862;47.732;7.346;2022-10-16T00:41:16;97960.93;;;14.73;83.60
71996;BME280;59862;47.732;7.346;2022-10-16T00:43:41;97968.73;;;14.72;83.56
71996;BME280;59862;47.732;7.346;2022-10-16T00:46:20;97972.06;;;14.74;83.36
71996;BME280;59862;47.732;7.346;2022-10-16T00:51:33;97960.73;;;14.75;83.28
71996;BME280;59862;47.732;7.346;2022-10-16T00:54:04;97966.54;;;14.78;83.35
71996;BME280;59862;47.732;7.346;2022-10-16T00:56:32;97963.22;;;14.76;83.21
71996;BME280;59862;47.732;7.346;2022-10-16T00:59:03;97969.47;;;14.70;83.27
71996;BME280;59862;47.732;7.346;2022-10-16T01:01:31;97973.31;;;14.65;83.38
71996;BME280;59862;47.732;7.346;2022-10-16T01:03:58;97978.20;;;14.66;83.49
71996;BME280;59862;47.732;7.346;2022-10-16T01:06:39;97975.06;;;14.62;83.50
71996;BME280;59862;47.732;7.346;2022-10-16T01:09:34;97967.70;;;14.60;83.64
71996;BME280;59862;47.732;7.346;2022-10-16T01:12:00;97955.04;;;14.54;83.72
71996;BME280;59862;47.732;7.346;2022-10-16T01:14:32;97967.19;;;14.54;83.84
71996;BME280;59862;47.732;7.346;2022-10-16T01:17:06;97977.38;;;14.52;83.86
71996;BME280;59862;47.732;7.346;2022-10-16T01:22:37;97978.83;;;14.48;84.19
71996;BME280;59862;47.732;7.346;2022-10-16T01:25:05;97959.09;;;14.41;84.26
71996;BME280;59862;47.732;7.346;2022-10-16T01:27:34;97961.18;;;14.39;84.32
71996;BME280;59862;47.732;7.346;2022-10-16T01:30:06;97965.23;;;14.39;84.29
71996;BME280;59862;47.732;7.346;2022-10-16T01:33:03;97960.16;;;14.40;84.27
71996;BME280;59862;47.732;7.346;2022-10-16T01:35:38;97956.61;;;14.39;84.34
71996;BME280;59862;47.732;7.346;2022-10-16T01:38:16;97957.86;;;14.37;84.35
71996;BME280;59862;47.732;7.346;2022-10-16T01:40:41;97956.73;;;14.35;84.45
71996;BME280;59862;47.732;7.346;2022-10-16T01:43:12;97962.42;;;14.36;84.49
71996;BME280;59862;47.732;7.346;2022-10-16T01:45:41;97970.41;;;14.34;84.58
71996;BME280;59862;47.732;7.346;2022-10-16T01:48:12;97965.01;;;14.34;84.65
71996;BME280;59862;47.732;7.346;2022-10-16T01:50:42;97964.50;;;14.34;84.55
71996;BME280;59862;47.732;7.346;2022-10-16T01:53:13;97969.06;;;14.34;84.53
71996;BME280;59862;47.732;7.346;2022-10-16T01:55:44;97976.75;;;14.37;84.54
71996;BME280;59862;47.732;7.346;2022-10-16T01:58:14;97973.66;;;14.40;84.42
71996;BME280;59862;47.732;7.346;2022-10-16T02:00:44;97982.16;;;14.43;84.26
71996;BME280;59862;47.732;7.346;2022-10-16T02:03:14;97978.72;;;14.46;84.21
71996;BME280;59862;47.732;7.346;2022-10-16T02:05:55;97968.03;;;14.48;84.07
71996;BME280;59862;47.732;7.346;2022-10-16T02:08:24;97983.80;;;14.51;83.78
71996;BME280;59862;47.732;7.346;2022-10-16T02:10:59;97977.27;;;14.56;83.62
71996;BME280;59862;47.732;7.346;2022-10-16T02:13:45;97975.51;;;14.59;83.44
71996;BME280;59862;47.732;7.346;2022-10-16T02:16:13;97982.77;;;14.59;83.45
71996;BME280;59862;47.732;7.346;2022-10-16T02:18:43;97986.31;;;14.59;83.40
71996;BME280;59862;47.732;7.346;2022-10-16T02:21:33;97990.98;;;14.61;83.41
71996;BME280;59862;47.732;7.346;2022-10-16T02:24:17;97988.16;;;14.65;83.35
71996;BME280;59862;47.732;7.346;2022-10-16T02:29:28;97985.14;;;14.64;83.16
71996;BME280;59862;47.732;7.346;2022-10-16T02:31:58;97989.52;;;14.65;83.19
71996;BME280;59862;47.732;7.346;2022-10-16T02:34:28;97984.00;;;14.69;82.96
71996;BME280;59862;47.732;7.346;2022-10-16T02:36:58;97981.92;;;14.71;82.75
71996;BME280;59862;47.732;7.346;2022-10-16T02:39:28;97984.95;;;14.72;82.75
71996;BME280;59862;47.732;7.346;2022-10-16T02:41:56;97982.86;;;14.74;82.73
71996;BME280;59862;47.732;7.346;2022-10-16T02:44:23;97981.80;;;14.75;82.56
71996;BME280;59862;47.732;7.346;2022-10-16T02:46:50;97983.77;;;14.77;82.42
71996;BME280;59862;47.732;7.346;2022-10-16T02:49:18;97978.58;;;14.82;82.04
71996;BME280;59862;47.732;7.346;2022-10-16T02:51:45;97974.92;;;14.86;81.91
71996;BME280;59862;47.732;7.346;2022-10-16T02:54:13;97978.79;;;14.87;81.94
71996;BME280;59862;47.732;7.346;2022-10-16T02:56:40;97973.49;;;14.90;81.66
71996;BME280;59862;47.732;7.346;2022-10-16T02:59:07;97977.32;;;14.91;81.61
71996;BME280;59862;47.732;7.346;2022-10-16T03:01:35;97987.29;;;14.91;81.54
71996;BME280;59862;47.732;7.346;2022-10-16T03:04:03;97982.72;;;14.91;81.45
71996;BME280;59862;47.732;7.346;2022-10-16T03:06:30;97983.75;;;14.90;81.57
71996;BME280;59862;47.732;7.346;2022-10-16T03:08:57;97976.38;;;14.88;81.49
71996;BME280;59862;47.732;7.346;2022-10-16T03:11:25;97971.70;;;14.86;81.56
71996;BME280;59862;47.732;7.346;2022-10-16T03:13:52;97978.47;;;14.86;81.52
71996;BME280;59862;47.732;7.346;2022-10-16T03:16:20;97976.09;;;14.87;81.36
71996;BME280;59862;47.732;7.346;2022-10-16T03:18:50;97977.33;;;14.85;81.46
71996;BME280;59862;47.732;7.346;2022-10-16T03:21:17;97981.28;;;14.82;81.73
71996;BME280;59862;47.732;7.346;2022-10-16T03:23:45;97974.13;;;14.79;81.76
71996;BME280;59862;47.732;7.346;2022-10-16T03:26:13;97974.64;;;14.78;81.62
71996;BME280;59862;47.732;7.346;2022-10-16T03:28:40;97971.72;;;14.80;81.56
71996;BME280;59862;47.732;7.346;2022-10-16T03:31:08;97989.61;;;14.81;81.53
71996;BME280;59862;47.732;7.346;2022-10-16T03:33:37;97994.28;;;14.83;81.59
71996;BME280;59862;47.732;7.346;2022-10-16T03:36:04;97998.63;;;14.84;81.54
71996;BME280;59862;47.732;7.346;2022-10-16T03:38:33;97992.82;;;14.80;81.64
71996;BME280;59862;47.732;7.346;2022-10-16T03:41:00;97999.17;;;14.83;81.59
71996;BME280;59862;47.732;7.346;2022-10-16T03:43:28;97996.87;;;14.80;81.38
71996;BME280;59862;47.732;7.346;2022-10-16T03:45:55;97992.20;;;14.78;81.40
71996;BME280;59862;47.732;7.346;2022-10-16T03:48:22;97994.39;;;14.79;81.39
71996;BME280;59862;47.732;7.346;2022-10-16T03:50:50;97990.85;;;14.78;81.46
71996;BME280;59862;47.732;7.346;2022-10-16T03:53:18;97988.55;;;14.82;81.71
71996;BME280;59862;47.732;7.346;2022-10-16T03:55:46;97988.66;;;14.78;81.58
71996;BME280;59862;47.732;7.346;2022-10-16T03:58:13;97986.91;;;14.81;81.35
71996;BME280;59862;47.732;7.346;2022-10-16T04:00:42;97990.02;;;14.78;81.29
71996;BME280;59862;47.732;7.346;2022-10-16T04:03:11;97985.34;;;14.76;81.35
71996;BME280;59862;47.732;7.346;2022-10-16T04:05:39;97987.83;;;14.77;81.59
71996;BME280;59862;47.732;7.346;2022-10-16T04:08:07;97995.81;;;14.81;81.72
71996;BME280;59862;47.732;7.346;2022-10-16T04:10:35;97999.58;;;14.80;81.91
71996;BME280;59862;47.732;7.346;2022-10-16T04:13:02;97993.23;;;14.77;81.86
71996;BME280;59862;47.732;7.346;2022-10-16T04:15:30;97997.83;;;14.77;81.80
71996;BME280;59862;47.732;7.346;2022-10-16T04:17:57;97996.37;;;14.74;81.93
71996;BME280;59862;47.732;7.346;2022-10-16T04:20:25;97992.94;;;14.70;81.91
71996;BME280;59862;47.732;7.346;2022-10-16T04:22:52;97991.89;;;14.64;82.15
71996;BME280;59862;47.732;7.346;2022-10-16T04:25:20;97990.65;;;14.60;82.25
71996;BME280;59862;47.732;7.346;2022-10-16T04:27:47;97990.14;;;14.61;82.33
71996;BME280;59862;47.732;7.346;2022-10-16T04:30:15;97989.63;;;14.61;82.47
71996;BME280;59862;47.732;7.346;2022-10-16T04:32:42;97977.15;;;14.60;82.51
71996;BME280;59862;47.732;7.346;2022-10-16T04:35:10;97975.29;;;14.54;82.48
71996;BME280;59862;47.732;7.346;2022-10-16T04:37:37;97980.06;;;14.59;82.64
71996;BME280;59862;47.732;7.346;2022-10-16T04:40:05;97984.34;;;14.57;82.56
71996;BME280;59862;47.732;7.346;2022-10-16T04:42:32;97984.42;;;14.53;82.70
71996;BME280;59862;47.732;7.346;2022-10-16T04:45:00;97992.44;;;14.57;82.64
71996;BME280;59862;47.732;7.346;2022-10-16T04:47:27;97991.16;;;14.53;82.53
71996;BME280;59862;47.732;7.346;2022-10-16T04:49:55;97992.52;;;14.53;82.59
71996;BME280;59862;47.732;7.346;2022-10-16T04:52:23;97997.63;;;14.52;82.51
71996;BME280;59862;47.732;7.346;2022-10-16T04:54:51;97999.38;;;14.56;82.45
71996;BME280;59862;47.732;7.346;2022-10-16T04:57:20;98006.56;;;14.59;82.44
71996;BME280;59862;47.732;7.346;2022-10-16T04:59:48;98009.98;;;14.57;82.67
71996;BME280;59862;47.732;7.346;2022-10-16T05:02:15;98012.88;;;14.56;82.70
71996;BME280;59862;47.732;7.346;2022-10-16T05:04:43;98010.80;;;14.51;82.58
71996;BME280;59862;47.732;7.346;2022-10-16T05:07:10;98019.73;;;14.52;82.56
71996;BME280;59862;47.732;7.346;2022-10-16T05:09:38;98020.36;;;14.47;82.71
71996;BME280;59862;47.732;7.346;2022-10-16T05:12:05;98026.92;;;14.49;82.76
71996;BME280;59862;47.732;7.346;2022-10-16T05:14:32;98029.80;;;14.47;82.74
71996;BME280;59862;47.732;7.346;2022-10-16T05:17:00;98037.39;;;14.48;82.68
71996;BME280;59862;47.732;7.346;2022-10-16T05:19:28;98030.75;;;14.50;82.64
71996;BME280;59862;47.732;7.346;2022-10-16T05:21:55;98030.12;;;14.48;82.54
71996;BME280;59862;47.732;7.346;2022-10-16T05:24:23;98032.61;;;14.43;82.66
71996;BME280;59862;47.732;7.346;2022-10-16T05:26:51;98035.20;;;14.40;82.72
71996;BME280;59862;47.732;7.346;2022-10-16T05:29:19;98029.39;;;14.37;82.70
71996;BME280;59862;47.732;7.346;2022-10-16T05:31:49;98019.43;;;14.31;82.89
71996;BME280;59862;47.732;7.346;2022-10-16T05:34:15;98029.17;;;14.32;82.85
71996;BME280;59862;47.732;7.346;2022-10-16T05:36:43;98020.34;;;14.34;82.74
71996;BME280;59862;47.732;7.346;2022-10-16T05:39:13;98028.05;;;14.37;82.76
71996;BME280;59862;47.732;7.346;2022-10-16T05:41:41;98022.03;;;14.41;82.50
71996;BME280;59862;47.732;7.346;2022-10-16T05:44:09;98033.86;;;14.47;82.09
71996;BME280;59862;47.732;7.346;2022-10-16T05:46:36;98029.70;;;14.51;81.85
71996;BME280;59862;47.732;7.346;2022-10-16T05:49:04;98033.34;;;14.54;81.94
71996;BME280;59862;47.732;7.346;2022-10-16T05:51:31;98027.55;;;14.57;81.61
71996;BME280;59862;47.732;7.346;2022-10-16T05:53:59;98036.16;;;14.63;81.43
71996;BME280;59862;47.732;7.346;2022-10-16T05:56:26;98035.10;;;14.64;81.25
71996;BME280;59862;47.732;7.346;2022-10-16T05:58:54;98043.64;;;14.68;80.94
71996;BME280;59862;47.732;7.346;2022-10-16T06:01:21;98051.73;;;14.74;80.75
71996;BME280;59862;47.732;7.346;2022-10-16T06:03:52;98060.98;;;14.82;80.41
71996;BME280;59862;47.732;7.346;2022-10-16T06:06:22;98048.41;;;14.85;79.75
71996;BME280;59862;47.732;7.346;2022-10-16T06:08:53;98060.97;;;14.95;79.43
71996;BME280;59862;47.732;7.346;2022-10-16T06:11:27;98073.12;;;15.08;79.81
71996;BME280;59862;47.732;7.346;2022-10-16T06:13:58;98069.36;;;15.09;78.52
71996;BME280;59862;47.732;7.346;2022-10-16T06:16:27;98066.97;;;15.17;78.57
71996;BME280;59862;47.732;7.346;2022-10-16T06:18:55;98071.02;;;15.24;77.90
71996;BME280;59862;47.732;7.346;2022-10-16T06:21:26;98082.55;;;15.28;77.76
71996;BME280;59862;47.732;7.346;2022-10-16T06:23:55;98084.12;;;15.27;77.95
71996;BME280;59862;47.732;7.346;2022-10-16T06:26:26;98088.45;;;15.34;77.04
71996;BME280;59862;47.732;7.346;2022-10-16T06:28:58;98090.75;;;15.37;77.61
71996;BME280;59862;47.732;7.346;2022-10-16T06:31:27;98102.80;;;15.41;77.37
71996;BME280;59862;47.732;7.346;2022-10-16T06:33:57;98094.09;;;15.46;77.25
71996;BME280;59862;47.732;7.346;2022-10-16T06:36:25;98090.30;;;15.40;77.26
71996;BME280;59862;47.732;7.346;2022-10-16T06:38:53;98084.38;;;15.41;77.37
71996;BME280;59862;47.732;7.346;2022-10-16T06:41:22;98081.30;;;15.44;77.08
71996;BME280;59862;47.732;7.346;2022-10-16T06:43:50;98080.13;;;15.49;77.41
71996;BME280;59862;47.732;7.346;2022-10-16T06:46:21;98080.65;;;15.55;77.40
71996;BME280;59862;47.732;7.346;2022-10-16T06:48:49;98092.80;;;15.61;77.44
71996;BME280;59862;47.732;7.346;2022-10-16T06:51:19;98095.58;;;15.64;77.29
71996;BME280;59862;47.732;7.346;2022-10-16T06:53:49;98111.31;;;15.58;77.32
71996;BME280;59862;47.732;7.346;2022-10-16T06:56:24;98110.27;;;15.65;77.96
71996;BME280;59862;47.732;7.346;2022-10-16T06:58:49;98122.31;;;15.69;76.79
71996;BME280;59862;47.732;7.346;2022-10-16T07:01:19;98118.66;;;15.73;77.14
71996;BME280;59862;47.732;7.346;2022-10-16T07:03:47;98120.45;;;15.70;77.13
71996;BME280;59862;47.732;7.346;2022-10-16T07:06:17;98131.77;;;15.76;76.74
71996;BME280;59862;47.732;7.346;2022-10-16T07:08:46;98135.78;;;15.89;76.87
71996;BME280;59862;47.732;7.346;2022-10-16T07:11:16;98142.63;;;15.98;76.40
71996;BME280;59862;47.732;7.346;2022-10-16T07:13:44;98151.55;;;15.99;76.47
71996;BME280;59862;47.732;7.346;2022-10-16T07:16:16;98159.77;;;16.01;76.41
71996;BME280;59862;47.732;7.346;2022-10-16T07:18:44;98165.14;;;16.14;76.37
71996;BME280;59862;47.732;7.346;2022-10-16T07:21:17;98156.94;;;16.05;75.94
71996;BME280;59862;47.732;7.346;2022-10-16T07:23:46;98155.91;;;16.06;75.42
71996;BME280;59862;47.732;7.346;2022-10-16T07:26:14;98149.19;;;16.22;75.89
71996;BME280;59862;47.732;7.346;2022-10-16T07:28:43;98154.73;;;16.33;75.10
71996;BME280;59862;47.732;7.346;2022-10-16T07:31:13;98163.41;;;16.48;74.88
71996;BME280;59862;47.732;7.346;2022-10-16T07:33:42;98166.30;;;16.60;74.14
71996;BME280;59862;47.732;7.346;2022-10-16T07:36:12;98163.55;;;16.66;73.75
71996;BME280;59862;47.732;7.346;2022-10-16T07:38:39;98163.37;;;16.61;73.18
71996;BME280;59862;47.732;7.346;2022-10-16T07:41:11;98173.30;;;16.58;73.40
71996;BME280;59862;47.732;7.346;2022-10-16T07:43:39;98181.20;;;16.60;73.40
71996;BME280;59862;47.732;7.346;2022-10-16T07:46:07;98186.84;;;16.58;73.55
71996;BME280;59862;47.732;7.346;2022-10-16T07:48:35;98189.47;;;16.49;72.66
71996;BME280;59862;47.732;7.346;2022-10-16T07:51:05;98187.75;;;16.61;73.31
71996;BME280;59862;47.732;7.346;2022-10-16T07:53:33;98187.62;;;16.65;72.98
71996;BME280;59862;47.732;7.346;2022-10-16T07:56:03;98191.52;;;16.92;74.16
71996;BME280;59862;47.732;7.346;2022-10-16T07:58:31;98193.30;;;17.20;72.43
71996;BME280;59862;47.732;7.346;2022-10-16T08:01:02;98190.62;;;17.69;71.43
71996;BME280;59862;47.732;7.346;2022-10-16T08:03:28;98192.09;;;18.08;68.82
71996;BME280;59862;47.732;7.346;2022-10-16T08:05:57;98194.63;;;18.39;69.03
71996;BME280;59862;47.732;7.346;2022-10-16T08:08:25;98188.54;;;18.16;67.26
71996;BME280;59862;47.732;7.346;2022-10-16T08:10:53;98189.90;;;18.16;67.72
71996;BME280;59862;47.732;7.346;2022-10-16T08:13:21;98197.81;;;18.45;66.29
71996;BME280;59862;47.732;7.346;2022-10-16T08:15:48;98191.09;;;19.07;65.74
71996;BME280;59862;47.732;7.346;2022-10-16T08:18:16;98192.40;;;19.81;64.72
71996;BME280;59862;47.732;7.346;2022-10-16T08:20:43;98189.06;;;20.02;62.64
71996;BME280;59862;47.732;7.346;2022-10-16T08:23:11;98184.05;;;19.85;62.51
71996;BME280;59862;47.732;7.346;2022-10-16T08:25:43;98184.59;;;20.10;63.45
71996;BME280;59862;47.732;7.346;2022-10-16T08:28:11;98186.48;;;20.44;61.49
71996;BME280;59862;47.732;7.346;2022-10-16T08:30:39;98189.70;;;20.55;61.88
71996;BME280;59862;47.732;7.346;2022-10-16T08:33:06;98191.15;;;20.46;61.97
71996;BME280;59862;47.732;7.346;2022-10-16T08:35:34;98196.86;;;20.10;63.00
71996;BME280;59862;47.732;7.346;2022-10-16T08:38:03;98181.63;;;19.86;63.70
71996;BME280;59862;47.732;7.346;2022-10-16T08:40:32;98187.22;;;20.28;62.49
71996;BME280;59862;47.732;7.346;2022-10-16T08:43:06;98185.02;;;20.67;61.66
71996;BME280;59862;47.732;7.346;2022-10-16T08:46:02;98195.36;;;21.71;58.92
71996;BME280;59862;47.732;7.346;2022-10-16T08:51:02;98214.00;;;21.91;57.27
71996;BME280;59862;47.732;7.346;2022-10-16T08:53:36;98221.89;;;22.26;58.13
71996;BME280;59862;47.732;7.346;2022-10-16T08:56:03;98223.25;;;23.12;55.78
71996;BME280;59862;47.732;7.346;2022-10-16T08:58:31;98226.29;;;23.40;52.72
71996;BME280;59862;47.732;7.346;2022-10-16T09:01:11;98227.78;;;23.84;51.75
71996;BME280;59862;47.732;7.346;2022-10-16T09:06:17;98237.62;;;23.51;51.90
71996;BME280;59862;47.732;7.346;2022-10-16T09:09:04;98241.23;;;22.82;53.24
71996;BME280;59862;47.732;7.346;2022-10-16T09:11:46;98241.70;;;22.16;55.28
71996;BME280;59862;47.732;7.346;2022-10-16T09:17:18;98233.14;;;21.01;59.50
71996;BME280;59862;47.732;7.346;2022-10-16T09:22:29;98240.80;;;21.61;59.94
71996;BME280;59862;47.732;7.346;2022-10-16T09:25:00;98241.03;;;21.43;58.42
71996;BME280;59862;47.732;7.346;2022-10-16T09:27:28;98242.86;;;21.37;59.55
71996;BME280;59862;47.732;7.346;2022-10-16T09:29:56;98251.32;;;21.38;60.55
71996;BME280;59862;47.732;7.346;2022-10-16T09:32:24;98248.27;;;21.21;59.84
71996;BME280;59862;47.732;7.346;2022-10-16T09:34:54;98244.38;;;21.31;60.74
71996;BME280;59862;47.732;7.346;2022-10-16T09:37:25;98244.26;;;20.97;61.64
71996;BME280;59862;47.732;7.346;2022-10-16T09:39:54;98254.34;;;20.83;61.19
71996;BME280;59862;47.732;7.346;2022-10-16T09:42:27;98253.22;;;20.56;62.93
71996;BME280;59862;47.732;7.346;2022-10-16T09:44:55;98255.44;;;21.10;62.76
71996;BME280;59862;47.732;7.346;2022-10-16T09:47:25;98258.66;;;21.99;59.73
71996;BME280;59862;47.732;7.346;2022-10-16T09:49:56;98260.64;;;23.02;57.50
71996;BME280;59862;47.732;7.346;2022-10-16T09:52:25;98255.91;;;23.75;53.37
71996;BME280;59862;47.732;7.346;2022-10-16T09:55:12;98251.55;;;24.55;52.62
71996;BME280;59862;47.732;7.346;2022-10-16T09:57:32;98256.13;;;24.86;50.69
71996;BME280;59862;47.732;7.346;2022-10-16T10:00:04;98243.48;;;24.33;51.13
71996;BME280;59862;47.732;7.346;2022-10-16T10:02:36;98252.84;;;24.40;51.46
71996;BME280;59862;47.732;7.346;2022-10-16T10:05:21;98244.09;;;24.43;48.25
71996;BME280;59862;47.732;7.346;2022-10-16T10:08:01;98252.70;;;24.20;49.38
71996;BME280;59862;47.732;7.346;2022-10-16T10:10:32;98252.73;;;23.88;50.08
71996;BME280;59862;47.732;7.346;2022-10-16T10:13:01;98257.23;;;23.70;51.84
71996;BME280;59862;47.732;7.346;2022-10-16T10:15:33;98250.53;;;23.87;50.08
71996;BME280;59862;47.732;7.346;2022-10-16T10:17:59;98250.72;;;23.78;50.84
71996;BME280;59862;47.732;7.346;2022-10-16T10:20:32;98248.91;;;23.91;51.84
71996;BME280;59862;47.732;7.346;2022-10-16T10:23:01;98251.90;;;24.22;49.59
71996;BME280;59862;47.732;7.346;2022-10-16T10:25:42;98251.12;;;24.29;49.32
71996;BME280;59862;47.732;7.346;2022-10-16T10:36:16;98255.80;;;26.15;45.22
71996;BME280;59862;47.732;7.346;2022-10-16T10:44:36;98246.09;;;28.07;40.07
71996;BME280;59862;47.732;7.346;2022-10-16T10:47:08;98244.12;;;28.38;37.95
71996;BME280;59862;47.732;7.346;2022-10-16T10:58:19;98238.62;;;29.07;35.82
71996;BME280;59862;47.732;7.346;2022-10-16T11:01:10;98235.16;;;28.23;38.19
71996;BME280;59862;47.732;7.346;2022-10-16T11:04:00;98237.14;;;27.84;37.90
71996;BME280;59862;47.732;7.346;2022-10-16T11:06:46;98231.14;;;27.38;39.67
71996;BME280;59862;47.732;7.346;2022-10-16T11:09:20;98233.34;;;26.87;41.22
71996;BME280;59862;47.732;7.346;2022-10-16T11:11:56;98224.45;;;26.11;42.29
71996;BME280;59862;47.732;7.346;2022-10-16T11:14:31;98230.50;;;26.20;40.38
71996;BME280;59862;47.732;7.346;2022-10-16T11:20:30;98236.27;;;26.24;40.45
71996;BME280;59862;47.732;7.346;2022-10-16T11:22:39;98236.56;;;25.92;41.69
71996;BME280;59862;47.732;7.346;2022-10-16T11:25:13;98237.89;;;26.35;41.65
71996;BME280;59862;47.732;7.346;2022-10-16T11:27:48;98238.11;;;26.54;39.78
71996;BME280;59862;47.732;7.346;2022-10-16T11:30:20;98239.81;;;26.42;40.54
71996;BME280;59862;47.732;7.346;2022-10-16T11:35:43;98239.17;;;26.68;40.63
71996;BME280;59862;47.732;7.346;2022-10-16T11:38:18;98232.10;;;26.31;41.85
71996;BME280;59862;47.732;7.346;2022-10-16T11:40:43;98225.27;;;25.74;44.04
71996;BME280;59862;47.732;7.346;2022-10-16T11:45:53;98213.20;;;25.77;42.76
71996;BME280;59862;47.732;7.346;2022-10-16T11:48:43;98211.52;;;25.89;43.37
71996;BME280;59862;47.732;7.346;2022-10-16T11:51:11;98214.22;;;25.28;44.50
71996;BME280;59862;47.732;7.346;2022-10-16T11:53:44;98216.13;;;25.20;43.28
71996;BME280;59862;47.732;7.346;2022-10-16T11:56:12;98217.96;;;24.87;42.77
71996;BME280;59862;47.732;7.346;2022-10-16T11:59:01;98217.17;;;25.02;43.28
71996;BME280;59862;47.732;7.346;2022-10-16T12:04:21;98206.50;;;25.15;42.47
71996;BME280;59862;47.732;7.346;2022-10-16T12:06:57;98207.33;;;25.16;41.89
71996;BME280;59862;47.732;7.346;2022-10-16T12:09:29;98203.30;;;25.64;40.62
71996;BME280;59862;47.732;7.346;2022-10-16T12:11:58;98208.42;;;26.38;39.78
71996;BME280;59862;47.732;7.346;2022-10-16T12:14:37;98203.94;;;26.62;39.94
71996;BME280;59862;47.732;7.346;2022-10-16T12:17:23;98209.30;;;27.02;38.16
71996;BME280;59862;47.732;7.346;2022-10-16T12:22:59;98201.56;;;27.07;38.37
71996;BME280;59862;47.732;7.346;2022-10-16T12:25:31;98194.14;;;27.83;38.92
71996;BME280;59862;47.732;7.346;2022-10-16T12:28:15;98186.78;;;29.20;36.63
71996;BME280;59862;47.732;7.346;2022-10-16T12:30:37;98191.94;;;30.42;31.96
71996;BME280;59862;47.732;7.346;2022-10-16T12:33:06;98193.27;;;30.85;33.25
71996;BME280;59862;47.732;7.346;2022-10-16T12:35:43;98192.47;;;31.81;30.94
71996;BME280;59862;47.732;7.346;2022-10-16T12:38:07;98192.77;;;31.90;29.90
71996;BME280;59862;47.732;7.346;2022-10-16T12:40:37;98182.78;;;33.55;28.65
71996;BME280;59862;47.732;7.346;2022-10-16T12:46:20;98186.42;;;35.67;25.27
71996;BME280;59862;47.732;7.346;2022-10-16T12:48:32;98181.38;;;37.19;24.95
71996;BME280;59862;47.732;7.346;2022-10-16T12:51:11;98179.59;;;38.34;23.01
71996;BME280;59862;47.732;7.346;2022-10-16T12:53:39;98175.12;;;38.77;22.60
71996;BME280;59862;47.732;7.346;2022-10-16T12:56:18;98185.25;;;39.85;21.97
71996;BME280;59862;47.732;7.346;2022-10-16T13:01:20;98177.67;;;41.74;19.19
71996;BME280;59862;47.732;7.346;2022-10-16T13:04:10;98176.02;;;42.03;19.30
71996;BME280;59862;47.732;7.346;2022-10-16T13:15:02;98161.70;;;41.00;20.45
71996;BME280;59862;47.732;7.346;2022-10-16T13:17:32;98163.45;;;41.80;20.08
71996;BME280;59862;47.732;7.346;2022-10-16T13:20:06;98168.12;;;41.82;19.03
71996;BME280;59862;47.732;7.346;2022-10-16T13:22:42;98168.42;;;42.07;19.01
71996;BME280;59862;47.732;7.346;2022-10-16T13:27:59;98160.22;;;41.35;19.58
71996;BME280;59862;47.732;7.346;2022-10-16T13:30:28;98163.43;;;41.34;18.61
71996;BME280;59862;47.732;7.346;2022-10-16T13:33:02;98157.39;;;40.83;19.24
71996;BME280;59862;47.732;7.346;2022-10-16T13:35:34;98170.09;;;41.52;18.90
71996;BME280;59862;47.732;7.346;2022-10-16T13:38:14;98166.78;;;42.63;17.78
71996;BME280;59862;47.732;7.346;2022-10-16T13:41:00;98167.41;;;42.62;18.47
71996;BME280;59862;47.732;7.346;2022-10-16T13:43:42;98165.72;;;42.01;19.00
71996;BME280;59862;47.732;7.346;2022-10-16T13:46:21;98162.99;;;42.88;18.43
71996;BME280;59862;47.732;7.346;2022-10-16T13:49:10;98159.76;;;43.14;17.47
71996;BME280;59862;47.732;7.346;2022-10-16T13:51:30;98157.75;;;43.14;17.39
71996;BME280;59862;47.732;7.346;2022-10-16T13:53:58;98164.59;;;42.62;18.53
71996;BME280;59862;47.732;7.346;2022-10-16T13:56:29;98160.64;;;41.97;18.80
71996;BME280;59862;47.732;7.346;2022-10-16T13:59:05;98161.11;;;40.23;19.65
71996;BME280;59862;47.732;7.346;2022-10-16T14:01:39;98153.29;;;40.80;19.80
71996;BME280;59862;47.732;7.346;2022-10-16T14:04:06;98162.47;;;41.52;18.86
71996;BME280;59862;47.732;7.346;2022-10-16T14:06:35;98163.87;;;41.52;19.54
71996;BME280;59862;47.732;7.346;2022-10-16T14:09:17;98161.09;;;42.39;19.28
71996;BME280;59862;47.732;7.346;2022-10-16T14:11:45;98167.30;;;42.15;18.72
71996;BME280;59862;47.732;7.346;2022-10-16T14:14:14;98160.62;;;40.17;20.44
71996;BME280;59862;47.732;7.346;2022-10-16T14:16:43;98161.45;;;40.50;19.78
71996;BME280;59862;47.732;7.346;2022-10-16T14:19:28;98161.42;;;40.95;19.75
71996;BME280;59862;47.732;7.346;2022-10-16T14:21:52;98154.85;;;41.40;18.52
71996;BME280;59862;47.732;7.346;2022-10-16T14:26:58;98162.16;;;41.44;19.31
71996;BME280;59862;47.732;7.346;2022-10-16T14:29:27;98163.42;;;40.40;19.53
71996;BME280;59862;47.732;7.346;2022-10-16T14:32:05;98155.45;;;38.24;22.04
71996;BME280;59862;47.732;7.346;2022-10-16T14:34:38;98162.17;;;36.13;23.52